sensor_id;sensor_type;location;lat;lon;timestamp;temperature;humidity
59128;DHT22;44912;52.754;5.994;2023-05-16T00:00:40;8.80;99.90
59128;DHT22;44912;52.754;5.994;2023-05-16T00:03:06;8.80;99.90
59128;DHT22;44912;52.754;5.994;2023-05-16T00:05:32;8.80;99.90
59128;DHT22;44912;52.754;5.994;2023-05-16T00:07:58;8.80;99.90
59128;DHT22;44912;52.754;5.994;2023-05-16T00:10:23;8.80;99.90
59128;DHT22;44912;52.754;5.994;2023-05-16T00:12:49;8.80;99.90
59128;DHT22;44912;52.754;5.994;2023-05-16T00:15:17;8.80;99.90
59128;DHT22;44912;52.754;5.994;2023-05-16T00:17:45;8.70;99.90
59128;DHT22;44912;52.754;5.994;2023-05-16T00:20:12;8.70;99.90
59128;DHT22;44912;52.754;5.994;2023-05-16T00:22:38;8.70;99.90
59128;DHT22;44912;52.754;5.994;2023-05-16T00:25:04;8.70;99.90
59128;DHT22;44912;52.754;5.994;2023-05-16T00:27:33;8.70;99.90
59128;DHT22;44912;52.754;5.994;2023-05-16T00:29:59;8.70;99.90
59128;DHT22;44912;52.754;5.994;2023-05-16T00:32:25;8.60;99.90
59128;DHT22;44912;52.754;5.994;2023-05-16T00:34:51;8.60;99.90
59128;DHT22;44912;52.754;5.994;2023-05-16T00:37:17;8.60;99.90
59128;DHT22;44912;52.754;5.994;2023-05-16T00:39:42;8.60;99.90
59128;DHT22;44912;52.754;5.994;2023-05-16T00:42:08;8.60;99.90
59128;DHT22;44912;52.754;5.994;2023-05-16T00:44:33;8.50;99.90
59128;DHT22;44912;52.754;5.994;2023-05-16T00:46:59;8.50;99.90
59128;DHT22;44912;52.754;5.994;2023-05-16T00:49:25;8.50;99.90
59128;DHT22;44912;52.754;5.994;2023-05-16T00:51:51;8.50;99.90
59128;DHT22;44912;52.754;5.994;2023-05-16T00:54:20;8.50;99.90
59128;DHT22;44912;52.754;5.994;2023-05-16T00:56:46;8.40;99.90
59128;DHT22;44912;52.754;5.994;2023-05-16T00:59:11;8.40;99.90
59128;DHT22;44912;52.754;5.994;2023-05-16T01:01:38;8.40;99.90
59128;DHT22;44912;52.754;5.994;2023-05-16T01:04:06;8.40;99.90
59128;DHT22;44912;52.754;5.994;2023-05-16T01:06:32;8.30;99.90
59128;DHT22;44912;52.754;5.994;2023-05-16T01:08:58;8.30;99.90
59128;DHT22;44912;52.754;5.994;2023-05-16T01:11:41;8.30;99.90
59128;DHT22;44912;52.754;5.994;2023-05-16T01:17:12;8.30;99.90
59128;DHT22;44912;52.754;5.994;2023-05-16T01:19:55;8.30;99.90
59128;DHT22;44912;52.754;5.994;2023-05-16T01:25:20;8.20;99.90
59128;DHT22;44912;52.754;5.994;2023-05-16T01:27:47;8.20;99.90
59128;DHT22;44912;52.754;5.994;2023-05-16T01:30:14;8.20;99.90
59128;DHT22;44912;52.754;5.994;2023-05-16T01:32:40;8.20;99.90
59128;DHT22;44912;52.754;5.994;2023-05-16T01:35:07;8.20;99.90
59128;DHT22;44912;52.754;5.994;2023-05-16T01:37:46;8.10;99.90
59128;DHT22;44912;52.754;5.994;2023-05-16T01:40:36;8.10;99.90
59128;DHT22;44912;52.754;5.994;2023-05-16T01:43:07;8.10;99.90
59128;DHT22;44912;52.754;5.994;2023-05-16T01:45:40;8.10;99.90
59128;DHT22;44912;52.754;5.994;2023-05-16T01:48:21;8.10;99.90
59128;DHT22;44912;52.754;5.994;2023-05-16T01:50:53;8.10;99.90
59128;DHT22;44912;52.754;5.994;2023-05-16T01:53:26;8.10;99.90
59128;DHT22;44912;52.754;5.994;2023-05-16T01:55:58;8.10;99.90
59128;DHT22;44912;52.754;5.994;2023-05-16T01:58:27;8.00;99.90
59128;DHT22;44912;52.754;5.994;2023-05-16T02:01:00;8.00;99.90
59128;DHT22;44912;52.754;5.994;2023-05-16T02:03:26;7.90;99.90
59128;DHT22;44912;52.754;5.994;2023-05-16T02:05:51;7.90;99.90
59128;DHT22;44912;52.754;5.994;2023-05-16T02:08:18;7.80;99.90
59128;DHT22;44912;52.754;5.994;2023-05-16T02:10:43;7.70;99.90
59128;DHT22;44912;52.754;5.994;2023-05-16T02:13:09;7.60;99.90
59128;DHT22;44912;52.754;5.994;2023-05-16T02:15:35;7.40;99.90
59128;DHT22;44912;52.754;5.994;2023-05-16T02:18:00;7.20;99.90
59128;DHT22;44912;52.754;5.994;2023-05-16T02:20:26;7.10;99.90
59128;DHT22;44912;52.754;5.994;2023-05-16T02:22:51;7.00;99.90
59128;DHT22;44912;52.754;5.994;2023-05-16T02:25:17;7.00;99.90
59128;DHT22;44912;52.754;5.994;2023-05-16T02:27:43;6.90;99.90
59128;DHT22;44912;52.754;5.994;2023-05-16T02:30:12;6.90;99.90
59128;DHT22;44912;52.754;5.994;2023-05-16T02:32:38;6.90;99.90
59128;DHT22;44912;52.754;5.994;2023-05-16T02:35:04;7.00;99.90
59128;DHT22;44912;52.754;5.994;2023-05-16T02:37:30;7.10;99.90
59128;DHT22;44912;52.754;5.994;2023-05-16T02:39:55;7.00;99.90
59128;DHT22;44912;52.754;5.994;2023-05-16T02:42:21;7.00;99.90
59128;DHT22;44912;52.754;5.994;2023-05-16T02:44:46;7.00;99.90
59128;DHT22;44912;52.754;5.994;2023-05-16T02:47:12;6.90;99.90
59128;DHT22;44912;52.754;5.994;2023-05-16T02:49:37;6.80;99.90
59128;DHT22;44912;52.754;5.994;2023-05-16T02:52:03;6.80;99.90
59128;DHT22;44912;52.754;5.994;2023-05-16T02:54:28;6.80;99.90
59128;DHT22;44912;52.754;5.994;2023-05-16T02:56:54;6.80;99.90
59128;DHT22;44912;52.754;5.994;2023-05-16T02:59:19;6.80;99.90
59128;DHT22;44912;52.754;5.994;2023-05-16T03:01:45;6.80;99.90
59128;DHT22;44912;52.754;5.994;2023-05-16T03:04:10;6.90;99.90
59128;DHT22;44912;52.754;5.994;2023-05-16T03:06:36;6.90;99.90
59128;DHT22;44912;52.754;5.994;2023-05-16T03:09:02;7.00;99.90
59128;DHT22;44912;52.754;5.994;2023-05-16T03:11:27;7.00;99.90
59128;DHT22;44912;52.754;5.994;2023-05-16T03:13:53;7.00;99.90
59128;DHT22;44912;52.754;5.994;2023-05-16T03:16:19;7.10;99.90
59128;DHT22;44912;52.754;5.994;2023-05-16T03:18:44;7.20;99.90
59128;DHT22;44912;52.754;5.994;2023-05-16T03:21:10;7.30;99.90
59128;DHT22;44912;52.754;5.994;2023-05-16T03:23:36;7.30;99.90
59128;DHT22;44912;52.754;5.994;2023-05-16T03:26:01;7.40;99.90
59128;DHT22;44912;52.754;5.994;2023-05-16T03:28:27;7.40;99.90
59128;DHT22;44912;52.754;5.994;2023-05-16T03:30:52;7.40;99.90
59128;DHT22;44912;52.754;5.994;2023-05-16T03:33:18;7.40;99.90
59128;DHT22;44912;52.754;5.994;2023-05-16T03:35:44;7.40;99.90
59128;DHT22;44912;52.754;5.994;2023-05-16T03:38:10;7.30;99.90
59128;DHT22;44912;52.754;5.994;2023-05-16T03:40:36;7.30;99.90
59128;DHT22;44912;52.754;5.994;2023-05-16T03:43:01;7.10;99.90
59128;DHT22;44912;52.754;5.994;2023-05-16T03:45:31;7.00;99.90
59128;DHT22;44912;52.754;5.994;2023-05-16T03:47:57;6.90;99.90
59128;DHT22;44912;52.754;5.994;2023-05-16T03:50:22;6.80;99.90
59128;DHT22;44912;52.754;5.994;2023-05-16T03:52:48;6.70;99.90
59128;DHT22;44912;52.754;5.994;2023-05-16T03:55:13;6.50;99.90
59128;DHT22;44912;52.754;5.994;2023-05-16T03:57:40;6.50;99.90
59128;DHT22;44912;52.754;5.994;2023-05-16T04:00:07;6.40;99.90
59128;DHT22;44912;52.754;5.994;2023-05-16T04:02:33;6.40;99.90
59128;DHT22;44912;52.754;5.994;2023-05-16T04:04:58;6.40;99.90
59128;DHT22;44912;52.754;5.994;2023-05-16T04:07:24;6.30;99.90
59128;DHT22;44912;52.754;5.994;2023-05-16T04:09:50;6.20;99.90
59128;DHT22;44912;52.754;5.994;2023-05-16T04:12:16;6.10;99.90
59128;DHT22;44912;52.754;5.994;2023-05-16T04:14:41;6.20;99.90
59128;DHT22;44912;52.754;5.994;2023-05-16T04:17:07;6.20;99.90
59128;DHT22;44912;52.754;5.994;2023-05-16T04:19:32;6.20;99.90
59128;DHT22;44912;52.754;5.994;2023-05-16T04:21:58;6.30;99.90
59128;DHT22;44912;52.754;5.994;2023-05-16T04:24:23;6.40;99.90
59128;DHT22;44912;52.754;5.994;2023-05-16T04:26:51;6.40;99.90
59128;DHT22;44912;52.754;5.994;2023-05-16T04:29:16;6.50;99.90
59128;DHT22;44912;52.754;5.994;2023-05-16T04:31:42;6.50;99.90
59128;DHT22;44912;52.754;5.994;2023-05-16T04:34:07;6.50;99.90
59128;DHT22;44912;52.754;5.994;2023-05-16T04:36:33;6.60;99.90
59128;DHT22;44912;52.754;5.994;2023-05-16T04:39:00;6.80;99.90
59128;DHT22;44912;52.754;5.994;2023-05-16T04:41:25;6.90;99.90
59128;DHT22;44912;52.754;5.994;2023-05-16T04:43:51;7.10;99.90
59128;DHT22;44912;52.754;5.994;2023-05-16T04:46:17;7.20;99.90
59128;DHT22;44912;52.754;5.994;2023-05-16T04:48:42;7.30;99.90
59128;DHT22;44912;52.754;5.994;2023-05-16T04:51:08;7.40;99.90
59128;DHT22;44912;52.754;5.994;2023-05-16T04:53:33;7.40;99.90
59128;DHT22;44912;52.754;5.994;2023-05-16T04:55:59;7.50;99.90
59128;DHT22;44912;52.754;5.994;2023-05-16T04:58:25;7.50;99.90
59128;DHT22;44912;52.754;5.994;2023-05-16T05:00:51;7.60;99.90
59128;DHT22;44912;52.754;5.994;2023-05-16T05:03:17;7.70;99.90
59128;DHT22;44912;52.754;5.994;2023-05-16T05:05:42;7.80;99.90
59128;DHT22;44912;52.754;5.994;2023-05-16T05:08:08;7.90;99.90
59128;DHT22;44912;52.754;5.994;2023-05-16T05:10:34;8.00;99.90
59128;DHT22;44912;52.754;5.994;2023-05-16T05:13:00;8.00;99.90
59128;DHT22;44912;52.754;5.994;2023-05-16T05:15:25;8.10;99.90
59128;DHT22;44912;52.754;5.994;2023-05-16T05:17:51;8.20;99.90
59128;DHT22;44912;52.754;5.994;2023-05-16T05:20:17;8.30;99.90
59128;DHT22;44912;52.754;5.994;2023-05-16T05:22:42;8.40;99.90
59128;DHT22;44912;52.754;5.994;2023-05-16T05:25:08;8.50;99.90
59128;DHT22;44912;52.754;5.994;2023-05-16T05:27:34;8.50;99.90
59128;DHT22;44912;52.754;5.994;2023-05-16T05:30:00;8.70;99.90
59128;DHT22;44912;52.754;5.994;2023-05-16T05:32:25;8.80;99.90
59128;DHT22;44912;52.754;5.994;2023-05-16T05:34:51;8.90;99.90
59128;DHT22;44912;52.754;5.994;2023-05-16T05:37:17;9.00;99.90
59128;DHT22;44912;52.754;5.994;2023-05-16T05:39:42;9.00;99.90
59128;DHT22;44912;52.754;5.994;2023-05-16T05:42:08;9.10;99.90
59128;DHT22;44912;52.754;5.994;2023-05-16T05:44:34;9.20;99.90
59128;DHT22;44912;52.754;5.994;2023-05-16T05:46:59;9.30;99.90
59128;DHT22;44912;52.754;5.994;2023-05-16T05:49:26;9.40;99.90
59128;DHT22;44912;52.754;5.994;2023-05-16T05:51:52;9.50;99.90
59128;DHT22;44912;52.754;5.994;2023-05-16T05:54:20;9.50;99.90
59128;DHT22;44912;52.754;5.994;2023-05-16T05:56:46;9.70;99.90
59128;DHT22;44912;52.754;5.994;2023-05-16T05:59:12;9.70;99.90
59128;DHT22;44912;52.754;5.994;2023-05-16T06:01:37;9.80;99.90
59128;DHT22;44912;52.754;5.994;2023-05-16T06:04:04;9.90;99.90
59128;DHT22;44912;52.754;5.994;2023-05-16T06:06:30;10.00;99.90
59128;DHT22;44912;52.754;5.994;2023-05-16T06:08:56;10.10;99.90
59128;DHT22;44912;52.754;5.994;2023-05-16T06:11:22;10.10;99.90
59128;DHT22;44912;52.754;5.994;2023-05-16T06:13:47;10.20;99.90
59128;DHT22;44912;52.754;5.994;2023-05-16T06:16:13;10.30;99.90
59128;DHT22;44912;52.754;5.994;2023-05-16T06:18:39;10.30;99.90
59128;DHT22;44912;52.754;5.994;2023-05-16T06:21:04;10.40;99.90
59128;DHT22;44912;52.754;5.994;2023-05-16T06:23:31;10.40;99.90
59128;DHT22;44912;52.754;5.994;2023-05-16T06:25:57;10.50;99.90
59128;DHT22;44912;52.754;5.994;2023-05-16T06:28:22;10.50;99.90
59128;DHT22;44912;52.754;5.994;2023-05-16T06:30:48;10.60;99.90
59128;DHT22;44912;52.754;5.994;2023-05-16T06:33:16;10.70;99.90
59128;DHT22;44912;52.754;5.994;2023-05-16T06:35:42;10.80;99.90
59128;DHT22;44912;52.754;5.994;2023-05-16T06:38:08;10.90;99.90
59128;DHT22;44912;52.754;5.994;2023-05-16T06:40:33;10.90;99.90
59128;DHT22;44912;52.754;5.994;2023-05-16T06:42:59;11.00;99.90
59128;DHT22;44912;52.754;5.994;2023-05-16T06:45:25;11.00;99.90
59128;DHT22;44912;52.754;5.994;2023-05-16T06:47:51;11.00;99.90
59128;DHT22;44912;52.754;5.994;2023-05-16T06:50:16;11.00;99.90
59128;DHT22;44912;52.754;5.994;2023-05-16T06:52:42;11.00;99.90
59128;DHT22;44912;52.754;5.994;2023-05-16T06:55:08;11.10;99.90
59128;DHT22;44912;52.754;5.994;2023-05-16T06:57:33;11.10;99.90
59128;DHT22;44912;52.754;5.994;2023-05-16T06:59:59;11.20;99.90
59128;DHT22;44912;52.754;5.994;2023-05-16T07:02:24;11.40;99.90
59128;DHT22;44912;52.754;5.994;2023-05-16T07:04:50;11.50;99.90
59128;DHT22;44912;52.754;5.994;2023-05-16T07:07:15;11.70;99.90
59128;DHT22;44912;52.754;5.994;2023-05-16T07:09:41;11.90;99.90
59128;DHT22;44912;52.754;5.994;2023-05-16T07:12:08;12.10;99.90
59128;DHT22;44912;52.754;5.994;2023-05-16T07:14:33;12.20;99.90
59128;DHT22;44912;52.754;5.994;2023-05-16T07:16:59;12.00;99.90
59128;DHT22;44912;52.754;5.994;2023-05-16T07:19:24;11.90;99.90
59128;DHT22;44912;52.754;5.994;2023-05-16T07:21:50;11.80;99.90
59128;DHT22;44912;52.754;5.994;2023-05-16T07:24:15;11.70;99.90
59128;DHT22;44912;52.754;5.994;2023-05-16T07:26:41;11.60;99.90
59128;DHT22;44912;52.754;5.994;2023-05-16T07:29:06;11.40;99.90
59128;DHT22;44912;52.754;5.994;2023-05-16T07:31:32;11.30;99.90
59128;DHT22;44912;52.754;5.994;2023-05-16T07:33:57;11.30;99.90
59128;DHT22;44912;52.754;5.994;2023-05-16T07:36:23;11.30;99.90
59128;DHT22;44912;52.754;5.994;2023-05-16T07:38:49;11.20;99.90
59128;DHT22;44912;52.754;5.994;2023-05-16T07:41:14;11.30;99.90
59128;DHT22;44912;52.754;5.994;2023-05-16T07:43:40;11.50;99.90
59128;DHT22;44912;52.754;5.994;2023-05-16T07:46:05;11.60;99.90
59128;DHT22;44912;52.754;5.994;2023-05-16T07:48:31;11.50;99.90
59128;DHT22;44912;52.754;5.994;2023-05-16T07:50:57;11.60;99.90
59128;DHT22;44912;52.754;5.994;2023-05-16T07:53:22;11.70;99.90
59128;DHT22;44912;52.754;5.994;2023-05-16T07:55:48;11.80;99.90
59128;DHT22;44912;52.754;5.994;2023-05-16T07:58:14;12.00;99.90
59128;DHT22;44912;52.754;5.994;2023-05-16T08:00:40;12.10;99.90
59128;DHT22;44912;52.754;5.994;2023-05-16T08:03:05;12.20;99.90
59128;DHT22;44912;52.754;5.994;2023-05-16T08:05:31;12.40;99.90
59128;DHT22;44912;52.754;5.994;2023-05-16T08:07:57;12.60;99.90
59128;DHT22;44912;52.754;5.994;2023-05-16T08:10:23;12.50;99.90
59128;DHT22;44912;52.754;5.994;2023-05-16T08:12:48;12.20;99.90
59128;DHT22;44912;52.754;5.994;2023-05-16T08:15:14;12.10;99.90
59128;DHT22;44912;52.754;5.994;2023-05-16T08:17:39;12.00;99.90
59128;DHT22;44912;52.754;5.994;2023-05-16T08:20:06;12.00;99.90
59128;DHT22;44912;52.754;5.994;2023-05-16T08:22:32;11.90;99.90
59128;DHT22;44912;52.754;5.994;2023-05-16T08:24:58;11.70;99.90
59128;DHT22;44912;52.754;5.994;2023-05-16T08:27:25;11.60;99.90
59128;DHT22;44912;52.754;5.994;2023-05-16T08:29:51;11.50;99.90
59128;DHT22;44912;52.754;5.994;2023-05-16T08:32:16;11.60;99.90
59128;DHT22;44912;52.754;5.994;2023-05-16T08:34:42;11.90;99.90
59128;DHT22;44912;52.754;5.994;2023-05-16T08:37:07;12.20;99.90
59128;DHT22;44912;52.754;5.994;2023-05-16T08:39:33;12.40;99.90
59128;DHT22;44912;52.754;5.994;2023-05-16T08:41:59;12.40;99.90
59128;DHT22;44912;52.754;5.994;2023-05-16T08:44:25;12.40;99.90
59128;DHT22;44912;52.754;5.994;2023-05-16T08:46:52;12.60;99.90
59128;DHT22;44912;52.754;5.994;2023-05-16T08:49:18;12.80;99.90
59128;DHT22;44912;52.754;5.994;2023-05-16T08:51:46;12.90;99.90
59128;DHT22;44912;52.754;5.994;2023-05-16T08:54:13;13.10;99.90
59128;DHT22;44912;52.754;5.994;2023-05-16T08:56:43;12.90;99.90
59128;DHT22;44912;52.754;5.994;2023-05-16T08:59:10;12.90;99.90
59128;DHT22;44912;52.754;5.994;2023-05-16T09:01:37;13.00;99.90
59128;DHT22;44912;52.754;5.994;2023-05-16T09:04:06;13.30;99.90
59128;DHT22;44912;52.754;5.994;2023-05-16T09:08:58;13.20;99.90
59128;DHT22;44912;52.754;5.994;2023-05-16T09:11:23;13.20;99.90
59128;DHT22;44912;52.754;5.994;2023-05-16T09:16:19;13.50;99.90
59128;DHT22;44912;52.754;5.994;2023-05-16T09:18:58;13.60;99.90
59128;DHT22;44912;52.754;5.994;2023-05-16T09:21:32;13.40;99.90
59128;DHT22;44912;52.754;5.994;2023-05-16T09:24:08;12.40;99.90
59128;DHT22;44912;52.754;5.994;2023-05-16T09:26:36;13.00;99.90
59128;DHT22;44912;52.754;5.994;2023-05-16T09:29:09;12.80;99.90
59128;DHT22;44912;52.754;5.994;2023-05-16T09:31:36;12.80;99.90
59128;DHT22;44912;52.754;5.994;2023-05-16T09:34:11;13.00;99.90
59128;DHT22;44912;52.754;5.994;2023-05-16T09:36:37;13.30;99.90
59128;DHT22;44912;52.754;5.994;2023-05-16T09:39:04;13.30;99.90
59128;DHT22;44912;52.754;5.994;2023-05-16T09:41:33;13.60;99.90
59128;DHT22;44912;52.754;5.994;2023-05-16T09:49:04;12.70;99.90
59128;DHT22;44912;52.754;5.994;2023-05-16T09:53:57;12.60;99.90
59128;DHT22;44912;52.754;5.994;2023-05-16T09:56:23;12.30;99.90
59128;DHT22;44912;52.754;5.994;2023-05-16T09:58:51;12.20;99.90
59128;DHT22;44912;52.754;5.994;2023-05-16T10:01:17;13.10;99.90
59128;DHT22;44912;52.754;5.994;2023-05-16T10:03:43;13.20;99.90
59128;DHT22;44912;52.754;5.994;2023-05-16T10:06:09;13.40;99.90
59128;DHT22;44912;52.754;5.994;2023-05-16T10:08:37;13.40;99.90
59128;DHT22;44912;52.754;5.994;2023-05-16T10:13:31;12.90;99.90
59128;DHT22;44912;52.754;5.994;2023-05-16T10:15:59;13.20;99.90
59128;DHT22;44912;52.754;5.994;2023-05-16T10:18:30;13.20;99.90
59128;DHT22;44912;52.754;5.994;2023-05-16T10:20:59;13.10;99.90
59128;DHT22;44912;52.754;5.994;2023-05-16T10:23:27;13.20;99.90
59128;DHT22;44912;52.754;5.994;2023-05-16T10:25:54;13.70;99.90
59128;DHT22;44912;52.754;5.994;2023-05-16T10:28:20;13.70;99.90
59128;DHT22;44912;52.754;5.994;2023-05-16T10:30:46;13.70;99.90
59128;DHT22;44912;52.754;5.994;2023-05-16T10:33:13;13.10;99.90
59128;DHT22;44912;52.754;5.994;2023-05-16T10:35:39;13.10;99.90
59128;DHT22;44912;52.754;5.994;2023-05-16T10:38:07;13.10;99.90
59128;DHT22;44912;52.754;5.994;2023-05-16T10:40:35;13.10;99.90
59128;DHT22;44912;52.754;5.994;2023-05-16T10:43:05;13.20;99.90
59128;DHT22;44912;52.754;5.994;2023-05-16T10:45:31;13.00;99.90
59128;DHT22;44912;52.754;5.994;2023-05-16T10:47:58;12.90;99.90
59128;DHT22;44912;52.754;5.994;2023-05-16T10:50:37;13.10;99.90
59128;DHT22;44912;52.754;5.994;2023-05-16T10:56:07;13.70;99.90
59128;DHT22;44912;52.754;5.994;2023-05-16T10:58:39;14.00;99.90
59128;DHT22;44912;52.754;5.994;2023-05-16T11:06:25;14.00;99.90
59128;DHT22;44912;52.754;5.994;2023-05-16T11:24:52;13.10;99.90
59128;DHT22;44912;52.754;5.994;2023-05-16T11:27:27;12.30;99.90
59128;DHT22;44912;52.754;5.994;2023-05-16T11:29:57;11.60;99.90
59128;DHT22;44912;52.754;5.994;2023-05-16T11:32:23;11.20;99.90
59128;DHT22;44912;52.754;5.994;2023-05-16T11:34:50;10.90;99.90
59128;DHT22;44912;52.754;5.994;2023-05-16T11:37:16;10.80;99.90
59128;DHT22;44912;52.754;5.994;2023-05-16T11:39:42;10.70;99.90
59128;DHT22;44912;52.754;5.994;2023-05-16T11:42:08;10.60;99.90
59128;DHT22;44912;52.754;5.994;2023-05-16T11:44:34;10.60;99.90
59128;DHT22;44912;52.754;5.994;2023-05-16T11:47:00;10.70;99.90
59128;DHT22;44912;52.754;5.994;2023-05-16T11:49:27;10.80;99.90
59128;DHT22;44912;52.754;5.994;2023-05-16T11:51:56;11.00;99.90
59128;DHT22;44912;52.754;5.994;2023-05-16T11:54:22;11.20;99.90
59128;DHT22;44912;52.754;5.994;2023-05-16T11:56:49;11.50;99.90
59128;DHT22;44912;52.754;5.994;2023-05-16T11:59:16;11.80;99.90
59128;DHT22;44912;52.754;5.994;2023-05-16T12:01:41;12.00;99.90
59128;DHT22;44912;52.754;5.994;2023-05-16T12:04:12;12.20;99.90
59128;DHT22;44912;52.754;5.994;2023-05-16T12:06:38;12.20;99.90
59128;DHT22;44912;52.754;5.994;2023-05-16T12:09:05;12.10;99.90
59128;DHT22;44912;52.754;5.994;2023-05-16T12:11:41;12.00;99.90
59128;DHT22;44912;52.754;5.994;2023-05-16T12:14:08;12.00;99.90
59128;DHT22;44912;52.754;5.994;2023-05-16T12:16:36;11.90;99.90
59128;DHT22;44912;52.754;5.994;2023-05-16T12:19:03;12.10;99.90
59128;DHT22;44912;52.754;5.994;2023-05-16T12:21:33;12.40;99.90
59128;DHT22;44912;52.754;5.994;2023-05-16T12:23:58;12.50;99.90
59128;DHT22;44912;52.754;5.994;2023-05-16T12:26:25;12.70;99.90
59128;DHT22;44912;52.754;5.994;2023-05-16T12:28:55;12.90;99.90
59128;DHT22;44912;52.754;5.994;2023-05-16T12:31:22;13.20;99.90
59128;DHT22;44912;52.754;5.994;2023-05-16T12:33:52;13.30;99.90
59128;DHT22;44912;52.754;5.994;2023-05-16T12:36:18;13.20;99.90
59128;DHT22;44912;52.754;5.994;2023-05-16T12:38:45;13.30;99.90
59128;DHT22;44912;52.754;5.994;2023-05-16T12:41:16;13.50;99.90
59128;DHT22;44912;52.754;5.994;2023-05-16T12:43:42;13.70;99.90
59128;DHT22;44912;52.754;5.994;2023-05-16T12:46:09;13.90;99.90
59128;DHT22;44912;52.754;5.994;2023-05-16T12:48:36;13.90;99.90
59128;DHT22;44912;52.754;5.994;2023-05-16T12:51:13;13.80;99.90
59128;DHT22;44912;52.754;5.994;2023-05-16T12:53:47;13.80;99.90
59128;DHT22;44912;52.754;5.994;2023-05-16T12:56:13;14.00;99.90
59128;DHT22;44912;52.754;5.994;2023-05-16T12:58:40;14.00;99.90
59128;DHT22;44912;52.754;5.994;2023-05-16T13:01:06;14.00;99.90
59128;DHT22;44912;52.754;5.994;2023-05-16T13:03:32;14.10;99.90
59128;DHT22;44912;52.754;5.994;2023-05-16T13:05:58;14.20;99.90
59128;DHT22;44912;52.754;5.994;2023-05-16T13:08:25;14.30;99.90
59128;DHT22;44912;52.754;5.994;2023-05-16T13:10:50;14.50;99.90
59128;DHT22;44912;52.754;5.994;2023-05-16T13:13:16;14.60;99.90
59128;DHT22;44912;52.754;5.994;2023-05-16T13:15:43;14.50;99.90
59128;DHT22;44912;52.754;5.994;2023-05-16T13:18:09;14.50;99.90
59128;DHT22;44912;52.754;5.994;2023-05-16T13:20:34;14.50;99.90
59128;DHT22;44912;52.754;5.994;2023-05-16T13:23:00;14.30;99.90
59128;DHT22;44912;52.754;5.994;2023-05-16T13:25:26;14.20;99.90
59128;DHT22;44912;52.754;5.994;2023-05-16T13:27:51;14.10;99.90
59128;DHT22;44912;52.754;5.994;2023-05-16T13:30:17;14.00;99.90
59128;DHT22;44912;52.754;5.994;2023-05-16T13:32:43;13.90;99.90
59128;DHT22;44912;52.754;5.994;2023-05-16T13:35:08;13.60;99.90
59128;DHT22;44912;52.754;5.994;2023-05-16T13:37:35;13.30;99.90
59128;DHT22;44912;52.754;5.994;2023-05-16T13:40:02;13.10;99.90
59128;DHT22;44912;52.754;5.994;2023-05-16T13:42:28;12.90;99.90
59128;DHT22;44912;52.754;5.994;2023-05-16T13:44:54;12.90;99.90
59128;DHT22;44912;52.754;5.994;2023-05-16T13:47:19;12.80;99.90
59128;DHT22;44912;52.754;5.994;2023-05-16T13:49:45;12.80;99.90
59128;DHT22;44912;52.754;5.994;2023-05-16T13:52:11;13.10;99.90
59128;DHT22;44912;52.754;5.994;2023-05-16T13:54:37;13.30;99.90
59128;DHT22;44912;52.754;5.994;2023-05-16T13:57:04;13.60;99.90
59128;DHT22;44912;52.754;5.994;2023-05-16T13:59:31;13.90;99.90
59128;DHT22;44912;52.754;5.994;2023-05-16T14:01:57;13.90;99.90
59128;DHT22;44912;52.754;5.994;2023-05-16T14:04:22;13.90;99.90
59128;DHT22;44912;52.754;5.994;2023-05-16T14:06:48;13.80;99.90
59128;DHT22;44912;52.754;5.994;2023-05-16T14:09:14;13.70;99.90
59128;DHT22;44912;52.754;5.994;2023-05-16T14:11:41;13.60;99.90
59128;DHT22;44912;52.754;5.994;2023-05-16T14:14:06;13.30;99.90
59128;DHT22;44912;52.754;5.994;2023-05-16T14:16:32;13.10;99.90
59128;DHT22;44912;52.754;5.994;2023-05-16T14:18:57;13.00;99.90
59128;DHT22;44912;52.754;5.994;2023-05-16T14:21:23;12.90;99.90
59128;DHT22;44912;52.754;5.994;2023-05-16T14:23:48;13.00;99.90
59128;DHT22;44912;52.754;5.994;2023-05-16T14:26:14;13.00;99.90
59128;DHT22;44912;52.754;5.994;2023-05-16T14:28:40;13.10;99.90
59128;DHT22;44912;52.754;5.994;2023-05-16T14:31:06;13.20;99.90
59128;DHT22;44912;52.754;5.994;2023-05-16T14:33:31;13.30;99.90
59128;DHT22;44912;52.754;5.994;2023-05-16T14:35:57;13.40;99.90
59128;DHT22;44912;52.754;5.994;2023-05-16T14:38:23;13.40;99.90
59128;DHT22;44912;52.754;5.994;2023-05-16T14:40:48;13.20;99.90
59128;DHT22;44912;52.754;5.994;2023-05-16T14:43:14;13.10;99.90
59128;DHT22;44912;52.754;5.994;2023-05-16T14:45:41;13.10;99.90
59128;DHT22;44912;52.754;5.994;2023-05-16T14:48:06;13.10;99.90
59128;DHT22;44912;52.754;5.994;2023-05-16T14:50:32;13.00;99.90
59128;DHT22;44912;52.754;5.994;2023-05-16T14:52:58;12.90;99.90
59128;DHT22;44912;52.754;5.994;2023-05-16T14:55:24;13.00;99.90
59128;DHT22;44912;52.754;5.994;2023-05-16T14:57:50;13.00;99.90
59128;DHT22;44912;52.754;5.994;2023-05-16T15:00:15;13.00;99.90
59128;DHT22;44912;52.754;5.994;2023-05-16T15:02:42;13.00;99.90
59128;DHT22;44912;52.754;5.994;2023-05-16T15:05:08;13.00;99.90
59128;DHT22;44912;52.754;5.994;2023-05-16T15:07:34;13.00;99.90
59128;DHT22;44912;52.754;5.994;2023-05-16T15:09:59;13.00;99.90
59128;DHT22;44912;52.754;5.994;2023-05-16T15:12:25;12.90;99.90
59128;DHT22;44912;52.754;5.994;2023-05-16T15:14:51;12.90;99.90
59128;DHT22;44912;52.754;5.994;2023-05-16T15:17:16;12.80;99.90
59128;DHT22;44912;52.754;5.994;2023-05-16T15:19:42;12.80;99.90
59128;DHT22;44912;52.754;5.994;2023-05-16T15:22:07;12.70;99.90
59128;DHT22;44912;52.754;5.994;2023-05-16T15:24:35;12.70;99.90
59128;DHT22;44912;52.754;5.994;2023-05-16T15:27:00;12.60;99.90
59128;DHT22;44912;52.754;5.994;2023-05-16T15:29:28;12.60;99.90
59128;DHT22;44912;52.754;5.994;2023-05-16T15:31:53;12.50;99.90
59128;DHT22;44912;52.754;5.994;2023-05-16T15:34:19;12.50;99.90
59128;DHT22;44912;52.754;5.994;2023-05-16T15:36:44;12.50;99.90
59128;DHT22;44912;52.754;5.994;2023-05-16T15:39:10;12.50;99.90
59128;DHT22;44912;52.754;5.994;2023-05-16T15:41:36;12.50;99.90
59128;DHT22;44912;52.754;5.994;2023-05-16T15:44:01;12.50;99.90
59128;DHT22;44912;52.754;5.994;2023-05-16T15:46:27;12.50;99.90
59128;DHT22;44912;52.754;5.994;2023-05-16T15:48:54;12.50;99.90
59128;DHT22;44912;52.754;5.994;2023-05-16T15:51:20;12.60;99.90
59128;DHT22;44912;52.754;5.994;2023-05-16T15:53:46;12.60;99.90
59128;DHT22;44912;52.754;5.994;2023-05-16T15:56:12;12.60;99.90
59128;DHT22;44912;52.754;5.994;2023-05-16T15:58:37;12.60;99.90
59128;DHT22;44912;52.754;5.994;2023-05-16T16:01:03;12.60;99.90
59128;DHT22;44912;52.754;5.994;2023-05-16T16:03:28;12.60;99.90
59128;DHT22;44912;52.754;5.994;2023-05-16T16:05:54;12.60;99.90
59128;DHT22;44912;52.754;5.994;2023-05-16T16:08:20;12.60;99.90
59128;DHT22;44912;52.754;5.994;2023-05-16T16:10:45;12.60;99.90
59128;DHT22;44912;52.754;5.994;2023-05-16T16:13:11;12.70;99.90
59128;DHT22;44912;52.754;5.994;2023-05-16T16:15:37;12.60;99.90
59128;DHT22;44912;52.754;5.994;2023-05-16T16:18:03;12.60;99.90